createdAt,value
2019-06-08T00:00:13.194Z,18.70
2019-06-08T00:02:41.786Z,18.80
2019-06-08T00:05:10.819Z,18.80
2019-06-08T00:07:39.553Z,18.80
2019-06-08T00:10:08.659Z,18.80
2019-06-08T00:12:37.270Z,18.80
2019-06-08T00:15:07.158Z,18.80
2019-06-08T00:17:39.000Z,18.80
2019-06-08T00:20:07.822Z,18.80
2019-06-08T00:22:36.464Z,18.80
2019-06-08T00:25:05.677Z,18.80
2019-06-08T00:27:34.344Z,18.70
2019-06-08T00:30:04.259Z,18.70
2019-06-08T00:32:33.336Z,18.60
2019-06-08T00:35:01.987Z,18.50
2019-06-08T00:37:30.713Z,18.50
2019-06-08T00:39:59.311Z,18.60
2019-06-08T00:42:27.955Z,18.60
2019-06-08T00:44:56.592Z,18.60
2019-06-08T00:47:26.774Z,18.60
2019-06-08T00:49:55.660Z,18.50
2019-06-08T00:52:25.567Z,18.40
2019-06-08T00:54:54.630Z,18.50
2019-06-08T00:57:23.880Z,18.50
2019-06-08T00:59:51.823Z,18.40
2019-06-08T01:02:20.441Z,18.40
2019-06-08T01:04:49.087Z,18.40
2019-06-08T01:07:17.908Z,18.30
2019-06-08T01:09:46.633Z,18.30
2019-06-08T01:12:15.230Z,18.30
2019-06-08T01:14:43.929Z,18.30
2019-06-08T01:17:12.610Z,18.20
2019-06-08T01:19:41.678Z,18.20
2019-06-08T01:22:10.407Z,18.20
2019-06-08T01:24:38.978Z,18.20
2019-06-08T01:27:07.583Z,18.20
2019-06-08T01:29:36.144Z,18.00
2019-06-08T01:32:04.798Z,18.00
2019-06-08T01:34:33.453Z,18.00
2019-06-08T01:37:02.114Z,18.00
2019-06-08T01:39:32.446Z,18.00
2019-06-08T01:42:01.144Z,18.00
2019-06-08T01:44:30.095Z,18.10
2019-06-08T01:46:58.842Z,18.00
2019-06-08T01:49:28.418Z,17.90
2019-06-08T01:51:57.246Z,17.90
2019-06-08T01:54:26.949Z,17.90
2019-06-08T01:56:55.637Z,17.80
2019-06-08T01:59:25.220Z,17.90
2019-06-08T02:01:53.910Z,17.90
2019-06-08T02:04:23.881Z,18.00
2019-06-08T02:06:52.622Z,18.00
2019-06-08T02:09:21.283Z,18.00
2019-06-08T02:11:50.018Z,18.00
2019-06-08T02:14:18.578Z,18.00
2019-06-08T02:16:47.203Z,18.10
2019-06-08T02:19:15.741Z,18.10
2019-06-08T02:21:44.375Z,18.00
2019-06-08T02:24:12.977Z,18.00
2019-06-08T02:26:41.646Z,18.00
2019-06-08T02:29:10.244Z,18.00
2019-06-08T02:31:38.851Z,18.20
2019-06-08T02:34:07.607Z,18.20
2019-06-08T02:36:37.868Z,18.30
2019-06-08T02:39:08.317Z,18.40
2019-06-08T02:41:37.566Z,18.40
2019-06-08T02:44:06.591Z,18.50
2019-06-08T02:46:35.977Z,18.60
2019-06-08T02:49:05.844Z,18.70
2019-06-08T02:51:36.426Z,18.80
2019-06-08T02:54:05.859Z,18.80
2019-06-08T02:56:36.800Z,18.90
2019-06-08T02:59:06.031Z,18.90
2019-06-08T03:01:36.632Z,19.00
2019-06-08T03:04:06.587Z,19.10
2019-06-08T03:06:39.381Z,19.20
2019-06-08T03:09:08.599Z,19.30
2019-06-08T03:11:38.993Z,19.40
2019-06-08T03:14:07.589Z,19.50
2019-06-08T03:16:38.391Z,19.60
2019-06-08T03:19:21.175Z,19.60
2019-06-08T03:21:38.332Z,19.70
2019-06-08T03:24:07.143Z,19.80
2019-06-08T03:26:36.722Z,19.90
2019-06-08T03:29:06.073Z,19.90
2019-06-08T03:31:39.155Z,19.90
2019-06-08T03:34:05.030Z,20.00
2019-06-08T03:36:37.389Z,20.10
2019-06-08T03:39:05.445Z,20.30
2019-06-08T03:41:34.783Z,20.70
2019-06-08T03:44:04.981Z,20.90
2019-06-08T03:46:34.446Z,21.10
2019-06-08T03:49:03.245Z,21.20
2019-06-08T03:51:35.167Z,21.30
2019-06-08T03:54:02.210Z,21.30
2019-06-08T03:56:30.828Z,21.60
2019-06-08T03:58:59.421Z,21.90
2019-06-08T04:01:27.987Z,22.20
2019-06-08T04:03:59.876Z,22.40
2019-06-08T04:06:26.907Z,22.20
2019-06-08T04:08:55.526Z,22.30
2019-06-08T04:11:24.115Z,22.20
2019-06-08T04:13:52.685Z,22.10
2019-06-08T04:16:22.385Z,22.00
2019-06-08T04:18:50.928Z,22.40
2019-06-08T04:21:19.535Z,23.30
2019-06-08T04:23:48.118Z,24.80
2019-06-08T04:26:16.719Z,24.90
2019-06-08T04:28:47.198Z,25.80
2019-06-08T04:31:15.586Z,25.30
2019-06-08T04:33:44.354Z,24.50
2019-06-08T04:36:13.050Z,23.90
2019-06-08T04:38:43.159Z,23.40
2019-06-08T04:41:12.109Z,22.90
2019-06-08T04:43:42.854Z,22.70
2019-06-08T04:46:11.867Z,22.50
2019-06-08T04:48:40.681Z,22.80
2019-06-08T04:51:09.926Z,23.10
2019-06-08T04:53:38.618Z,23.10
2019-06-08T04:56:07.455Z,22.80
2019-06-08T04:58:36.007Z,22.50
2019-06-08T05:01:04.671Z,22.20
2019-06-08T05:03:33.231Z,22.50
2019-06-08T05:06:01.858Z,23.80
2019-06-08T05:08:30.420Z,24.20
2019-06-08T05:10:59.013Z,24.40
2019-06-08T05:13:27.608Z,23.90
2019-06-08T05:15:56.198Z,23.40
2019-06-08T05:18:26.073Z,24.00
2019-06-08T05:20:54.996Z,25.30
2019-06-08T05:23:23.543Z,26.50
2019-06-08T05:25:52.145Z,27.30
2019-06-08T05:28:20.771Z,27.40
2019-06-08T05:30:49.687Z,26.20
2019-06-08T05:33:17.693Z,25.70
2019-06-08T05:35:47.527Z,25.60
2019-06-08T05:38:16.269Z,25.60
2019-06-08T05:40:45.597Z,26.20
2019-06-08T05:43:14.386Z,27.10
2019-06-08T05:45:43.800Z,27.30
2019-06-08T05:48:12.393Z,28.90
2019-06-08T05:50:54.906Z,29.30
2019-06-08T05:53:11.290Z,30.90
2019-06-08T05:55:39.854Z,32.10
2019-06-08T05:58:08.662Z,33.90
2019-06-08T06:00:37.415Z,34.20
2019-06-08T06:03:06.135Z,35.00
2019-06-08T06:05:34.822Z,34.10
2019-06-08T06:08:15.382Z,32.80
2019-06-08T06:10:33.722Z,34.90
2019-06-08T06:13:02.270Z,35.50
2019-06-08T06:15:31.010Z,36.30
2019-06-08T06:17:59.593Z,35.50
2019-06-08T06:20:28.343Z,35.50
2019-06-08T06:22:58.609Z,35.00
2019-06-08T06:25:27.360Z,34.00
2019-06-08T06:27:55.233Z,32.90
2019-06-08T06:30:23.873Z,32.00
2019-06-08T06:32:51.962Z,32.50
2019-06-08T06:35:20.724Z,33.20
2019-06-08T06:37:50.161Z,34.40
2019-06-08T06:40:19.007Z,35.50
2019-06-08T06:42:48.010Z,35.60
2019-06-08T06:45:17.013Z,37.50
2019-06-08T06:47:46.447Z,37.70
2019-06-08T06:50:15.334Z,37.70
2019-06-08T06:52:44.601Z,36.00
2019-06-08T06:55:13.645Z,37.90
2019-06-08T06:57:43.478Z,36.70
2019-06-08T07:00:13.206Z,37.30
2019-06-08T07:02:41.772Z,35.50
2019-06-08T07:05:09.895Z,33.50
2019-06-08T07:07:38.443Z,33.10
2019-06-08T07:10:07.812Z,34.60
2019-06-08T07:12:36.652Z,34.10
2019-06-08T07:15:09.697Z,35.60
2019-06-08T07:17:38.345Z,35.10
2019-06-08T07:20:07.613Z,37.00
2019-06-08T07:22:36.305Z,35.10
2019-06-08T07:25:06.006Z,33.50
2019-06-08T07:27:34.572Z,32.90
2019-06-08T07:30:03.586Z,34.40
2019-06-08T07:32:32.854Z,33.70
2019-06-08T07:35:01.413Z,35.00
2019-06-08T07:37:29.275Z,34.70
2019-06-08T07:39:57.924Z,34.60
2019-06-08T07:42:25.795Z,34.50
2019-06-08T07:44:55.102Z,34.20
2019-06-08T07:47:23.894Z,37.10
2019-06-08T07:49:53.281Z,38.70
2019-06-08T07:52:22.000Z,36.60
2019-06-08T07:54:50.954Z,36.20
2019-06-08T07:57:19.793Z,35.60
2019-06-08T07:59:49.184Z,36.20
2019-06-08T08:02:18.603Z,35.10
2019-06-08T08:04:46.455Z,34.60
2019-06-08T08:07:15.113Z,35.20
2019-06-08T08:09:43.029Z,33.70
2019-06-08T08:12:12.389Z,35.50
2019-06-08T08:14:41.162Z,36.10
2019-06-08T08:17:09.011Z,36.30
2019-06-08T08:19:37.665Z,36.30
2019-06-08T08:22:19.510Z,36.40
2019-06-08T08:24:35.769Z,35.00
2019-06-08T08:27:03.952Z,35.60
2019-06-08T08:29:32.702Z,34.50
2019-06-08T08:32:02.031Z,34.40
2019-06-08T08:34:30.768Z,35.00
2019-06-08T08:37:05.307Z,35.10
2019-06-08T08:39:28.725Z,33.30
2019-06-08T08:42:02.951Z,34.80
2019-06-08T08:44:28.357Z,36.00
2019-06-08T08:47:00.546Z,35.30
2019-06-08T08:49:28.126Z,34.40
2019-06-08T08:51:59.004Z,35.70
2019-06-08T08:54:27.557Z,37.60
2019-06-08T08:57:01.641Z,39.50
2019-06-08T08:59:28.044Z,37.80
2019-06-08T09:01:59.178Z,37.40
2019-06-08T09:04:27.745Z,36.80
2019-06-08T09:07:02.382Z,35.60
2019-06-08T09:09:28.863Z,35.20
2019-06-08T09:12:02.194Z,35.70
2019-06-08T09:14:28.080Z,36.10
2019-06-08T09:16:59.810Z,34.90
2019-06-08T09:19:28.103Z,33.60
2019-06-08T09:21:58.953Z,33.10
2019-06-08T09:24:28.622Z,35.40
2019-06-08T09:27:00.871Z,36.10
2019-06-08T09:29:28.882Z,35.50
2019-06-08T09:31:59.072Z,35.70
2019-06-08T09:34:28.377Z,33.70
2019-06-08T09:37:00.117Z,34.40
2019-06-08T09:39:28.624Z,34.60
2019-06-08T09:42:00.382Z,33.40
2019-06-08T09:44:28.167Z,34.20
2019-06-08T09:47:01.985Z,32.50
2019-06-08T09:49:28.000Z,32.10
2019-06-08T09:52:00.356Z,32.30
2019-06-08T09:54:28.292Z,33.70
2019-06-08T09:57:00.923Z,32.70
2019-06-08T09:59:28.509Z,32.40
2019-06-08T10:02:03.615Z,33.50
2019-06-08T10:04:29.126Z,31.70
2019-06-08T10:07:00.226Z,32.00
2019-06-08T10:09:28.480Z,32.30
2019-06-08T10:11:59.579Z,33.00
2019-06-08T10:14:28.211Z,34.00
2019-06-08T10:16:59.150Z,32.20
2019-06-08T10:19:27.181Z,31.60
2019-06-08T10:21:56.908Z,30.50
2019-06-08T10:24:25.947Z,29.40
2019-06-08T10:26:55.203Z,29.20
2019-06-08T10:29:23.900Z,28.90
2019-06-08T10:31:52.468Z,28.70
2019-06-08T10:34:21.161Z,28.90
2019-06-08T10:36:49.792Z,28.70
2019-06-08T10:39:18.512Z,28.40
2019-06-08T10:41:51.267Z,28.20
2019-06-08T10:44:18.268Z,28.40
2019-06-08T10:46:48.231Z,29.20
2019-06-08T10:49:18.680Z,29.30
2019-06-08T10:51:48.741Z,29.20
2019-06-08T10:54:17.628Z,29.10
2019-06-08T10:56:48.414Z,29.00
2019-06-08T10:59:18.515Z,28.90
2019-06-08T11:01:46.757Z,29.00
2019-06-08T11:04:15.696Z,29.10
2019-06-08T11:06:44.455Z,28.90
2019-06-08T11:09:15.258Z,28.70
2019-06-08T11:11:43.476Z,28.80
2019-06-08T11:14:13.185Z,28.90
2019-06-08T11:16:42.357Z,28.90
2019-06-08T11:19:13.218Z,28.50
2019-06-08T11:21:41.355Z,28.30
2019-06-08T11:24:21.651Z,28.40
2019-06-08T11:26:40.507Z,28.20
2019-06-08T11:29:12.206Z,28.00
2019-06-08T11:31:39.555Z,28.00
2019-06-08T11:34:08.583Z,28.40
2019-06-08T11:36:39.476Z,28.50
2019-06-08T11:39:11.330Z,29.00
2019-06-08T11:41:39.058Z,29.00
2019-06-08T11:44:11.890Z,28.90
2019-06-08T11:46:38.790Z,28.90
2019-06-08T11:49:11.685Z,29.10
2019-06-08T11:51:38.438Z,28.90
2019-06-08T11:54:25.479Z,28.50
2019-06-08T11:56:40.239Z,28.30
2019-06-08T11:59:11.104Z,28.40
2019-06-08T12:01:38.081Z,28.60
2019-06-08T12:04:07.741Z,29.00
2019-06-08T12:06:37.689Z,28.90
2019-06-08T12:09:10.412Z,28.60
2019-06-08T12:11:38.294Z,28.90
2019-06-08T12:14:09.195Z,29.10
2019-06-08T12:16:37.882Z,29.10
2019-06-08T12:19:10.012Z,29.30
2019-06-08T12:21:37.109Z,29.20
2019-06-08T12:24:06.194Z,29.20
2019-06-08T12:26:35.043Z,29.30
2019-06-08T12:29:05.092Z,28.90
2019-06-08T12:31:33.758Z,28.90
2019-06-08T12:34:02.348Z,29.00
2019-06-08T12:36:30.938Z,29.10
2019-06-08T12:38:59.605Z,29.10
2019-06-08T12:41:31.180Z,28.90
2019-06-08T12:43:58.585Z,28.90
2019-06-08T12:46:28.053Z,28.80
2019-06-08T12:48:58.330Z,28.80
2019-06-08T12:51:28.091Z,29.00
2019-06-08T12:53:59.887Z,29.00
2019-06-08T12:56:28.786Z,28.80
2019-06-08T12:58:57.910Z,28.80
2019-06-08T13:01:27.981Z,28.90
2019-06-08T13:03:58.110Z,28.90
2019-06-08T13:06:28.241Z,29.00
2019-06-08T13:08:57.734Z,29.20
2019-06-08T13:11:28.272Z,29.20
2019-06-08T13:13:56.942Z,29.40
2019-06-08T13:16:28.225Z,29.40
2019-06-08T13:18:58.516Z,29.40
2019-06-08T13:21:34.609Z,29.30
2019-06-08T13:23:58.144Z,29.00
2019-06-08T13:26:28.640Z,28.90
2019-06-08T13:28:58.341Z,28.70
2019-06-08T13:31:28.872Z,28.70
2019-06-08T13:33:58.651Z,28.90
2019-06-08T13:36:29.536Z,29.20
2019-06-08T13:38:57.531Z,29.30
2019-06-08T13:41:29.550Z,29.30
2019-06-08T13:43:58.117Z,29.40
2019-06-08T13:46:28.214Z,29.30
2019-06-08T13:48:58.544Z,29.30
2019-06-08T13:51:28.229Z,29.20
2019-06-08T13:53:58.096Z,29.30
2019-06-08T13:56:28.428Z,29.00
2019-06-08T13:58:57.495Z,28.90
2019-06-08T14:01:30.377Z,28.60
2019-06-08T14:03:58.158Z,28.50
2019-06-08T14:06:28.407Z,28.40
2019-06-08T14:08:58.010Z,28.40
2019-06-08T14:11:28.049Z,28.30
2019-06-08T14:14:00.777Z,28.40
2019-06-08T14:16:29.459Z,28.30
2019-06-08T14:18:57.435Z,28.00
2019-06-08T14:21:34.192Z,27.70
2019-06-08T14:23:58.597Z,27.60
2019-06-08T14:26:26.507Z,27.50
2019-06-08T14:28:55.146Z,27.30
2019-06-08T14:31:25.312Z,27.30
2019-06-08T14:33:54.168Z,27.30
2019-06-08T14:36:24.068Z,27.20
2019-06-08T14:38:52.934Z,27.20
2019-06-08T14:41:22.694Z,27.20
2019-06-08T14:43:51.364Z,27.20
2019-06-08T14:46:21.129Z,27.30
2019-06-08T14:48:50.183Z,27.30
2019-06-08T14:51:18.859Z,27.30
2019-06-08T14:53:48.543Z,27.40
2019-06-08T14:56:19.459Z,27.70
2019-06-08T14:58:48.307Z,27.80
2019-06-08T15:01:19.441Z,27.90
2019-06-08T15:03:48.234Z,27.80
2019-06-08T15:06:17.873Z,28.00
2019-06-08T15:08:52.761Z,27.90
2019-06-08T15:11:21.452Z,28.00
2019-06-08T15:13:50.033Z,27.80
2019-06-08T15:16:19.692Z,27.70
2019-06-08T15:18:48.443Z,27.60
2019-06-08T15:21:17.915Z,27.40
2019-06-08T15:23:47.745Z,27.40
2019-06-08T15:26:23.983Z,27.30
2019-06-08T15:28:48.557Z,27.10
2019-06-08T15:31:18.393Z,27.20
2019-06-08T15:33:48.161Z,27.10
2019-06-08T15:36:20.314Z,27.10
2019-06-08T15:38:47.991Z,27.20
2019-06-08T15:41:20.742Z,27.10
2019-06-08T15:43:48.101Z,27.10
2019-06-08T15:46:18.365Z,27.10
2019-06-08T15:48:48.512Z,27.10
2019-06-08T15:51:17.357Z,27.10
2019-06-08T15:53:47.698Z,27.00
2019-06-08T15:56:18.540Z,27.10
2019-06-08T15:58:48.703Z,27.00
2019-06-08T16:01:16.917Z,27.00
2019-06-08T16:03:45.510Z,27.00
2019-06-08T16:06:14.110Z,27.00
2019-06-08T16:08:42.677Z,27.00
2019-06-08T16:11:11.306Z,26.90
2019-06-08T16:13:39.885Z,26.80
2019-06-08T16:16:08.454Z,26.80
2019-06-08T16:18:37.272Z,26.70
2019-06-08T16:21:05.885Z,26.70
2019-06-08T16:23:35.714Z,26.70
2019-06-08T16:26:04.687Z,26.70
2019-06-08T16:28:34.170Z,26.80
2019-06-08T16:31:05.470Z,26.80
2019-06-08T16:33:33.393Z,26.80
2019-06-08T16:36:02.483Z,26.80
2019-06-08T16:38:32.363Z,26.90
2019-06-08T16:41:01.124Z,26.90
2019-06-08T16:43:30.961Z,26.90
2019-06-08T16:45:59.725Z,27.00
2019-06-08T16:48:28.311Z,26.90
2019-06-08T16:50:57.036Z,26.90
2019-06-08T16:53:25.629Z,26.80
2019-06-08T16:55:54.289Z,26.70
2019-06-08T16:58:22.951Z,26.40
2019-06-08T17:00:51.615Z,26.00
2019-06-08T17:03:20.169Z,25.80
2019-06-08T17:05:48.769Z,25.70
2019-06-08T17:08:17.423Z,25.60
2019-06-08T17:10:46.115Z,25.40
2019-06-08T17:13:14.778Z,25.40
2019-06-08T17:15:43.510Z,25.30
2019-06-08T17:18:12.104Z,25.20
2019-06-08T17:20:40.787Z,25.00
2019-06-08T17:23:09.408Z,25.00
2019-06-08T17:25:38.779Z,24.90
2019-06-08T17:28:07.528Z,24.80
2019-06-08T17:30:37.522Z,24.70
2019-06-08T17:33:06.429Z,24.70
2019-06-08T17:35:35.583Z,24.60
2019-06-08T17:38:03.473Z,24.60
2019-06-08T17:40:33.848Z,24.50
2019-06-08T17:43:02.857Z,24.40
2019-06-08T17:45:32.357Z,24.50
2019-06-08T17:48:01.222Z,24.40
2019-06-08T17:50:29.941Z,24.40
2019-06-08T17:52:58.561Z,24.30
2019-06-08T17:55:27.250Z,24.20
2019-06-08T17:57:55.814Z,24.20
2019-06-08T18:00:24.844Z,24.20
2019-06-08T18:02:52.961Z,24.20
2019-06-08T18:05:21.610Z,24.20
2019-06-08T18:07:50.172Z,24.20
2019-06-08T18:10:18.906Z,24.20
2019-06-08T18:12:49.328Z,24.20
2019-06-08T18:15:17.773Z,24.20
2019-06-08T18:17:48.249Z,24.20
2019-06-08T18:20:17.768Z,24.20
2019-06-08T18:22:49.272Z,24.10
2019-06-08T18:25:17.746Z,24.10
2019-06-08T18:28:02.624Z,23.90
2019-06-08T18:30:19.127Z,23.80
2019-06-08T18:32:48.576Z,23.80
2019-06-08T18:35:18.228Z,23.80
2019-06-08T18:37:48.657Z,23.70
2019-06-08T18:40:18.095Z,23.60
2019-06-08T18:42:48.691Z,23.50
2019-06-08T18:45:18.609Z,23.40
2019-06-08T18:47:48.427Z,23.40
2019-06-08T18:50:18.178Z,23.40
2019-06-08T18:52:49.469Z,23.30
2019-06-08T18:55:18.313Z,23.20
2019-06-08T18:57:48.978Z,23.20
2019-06-08T19:00:17.986Z,23.10
2019-06-08T19:02:53.583Z,23.10
2019-06-08T19:05:20.786Z,23.20
2019-06-08T19:07:50.016Z,23.20
2019-06-08T19:10:23.398Z,23.10
2019-06-08T19:12:51.990Z,23.10
2019-06-08T19:15:23.734Z,23.10
2019-06-08T19:17:54.418Z,23.10
2019-06-08T19:20:22.694Z,23.10
2019-06-08T19:22:54.104Z,23.00
2019-06-08T19:25:21.662Z,23.00
2019-06-08T19:27:53.056Z,23.10
2019-06-08T19:30:24.213Z,23.00
2019-06-08T19:32:52.432Z,23.00
2019-06-08T19:35:21.218Z,23.00
2019-06-08T19:37:53.625Z,23.00
2019-06-08T19:40:20.241Z,23.00
2019-06-08T19:42:56.850Z,22.90
2019-06-08T19:45:19.386Z,22.90
2019-06-08T19:47:48.840Z,22.80
2019-06-08T19:50:17.648Z,22.80
2019-06-08T19:52:51.620Z,22.80
2019-06-08T19:55:18.151Z,22.80
2019-06-08T19:57:49.064Z,22.70
2019-06-08T20:00:18.111Z,22.70
2019-06-08T20:02:47.787Z,22.70
2019-06-08T20:05:17.489Z,22.60
2019-06-08T20:07:47.020Z,22.60
2019-06-08T20:10:17.628Z,22.50
2019-06-08T20:12:49.237Z,22.50
2019-06-08T20:15:18.425Z,22.50
2019-06-08T20:17:48.934Z,22.50
2019-06-08T20:20:18.663Z,22.60
2019-06-08T20:22:50.342Z,22.60
2019-06-08T20:25:17.959Z,22.70
2019-06-08T20:27:49.753Z,22.70
2019-06-08T20:30:17.409Z,22.70
2019-06-08T20:32:46.565Z,22.80
2019-06-08T20:35:17.456Z,22.80
2019-06-08T20:37:46.003Z,22.80
2019-06-08T20:40:14.903Z,22.80
2019-06-08T20:42:44.182Z,22.80
2019-06-08T20:45:13.117Z,22.80
2019-06-08T20:47:42.383Z,22.70
2019-06-08T20:50:11.593Z,22.70
2019-06-08T20:52:40.246Z,22.70
2019-06-08T20:55:09.055Z,22.70
2019-06-08T20:57:37.650Z,22.70
2019-06-08T21:00:11.890Z,22.60
2019-06-08T21:02:39.606Z,22.60
2019-06-08T21:05:09.065Z,22.50
2019-06-08T21:07:37.634Z,22.50
2019-06-08T21:10:08.587Z,22.50
2019-06-08T21:12:37.918Z,22.50
2019-06-08T21:15:07.628Z,22.50
2019-06-08T21:17:38.370Z,22.40
2019-06-08T21:20:08.542Z,22.40
2019-06-08T21:22:37.404Z,22.30
2019-06-08T21:25:08.961Z,22.20
2019-06-08T21:27:38.453Z,22.20
2019-06-08T21:30:20.279Z,22.10
2019-06-08T21:32:40.633Z,22.00
2019-06-08T21:35:09.536Z,22.00
2019-06-08T21:37:38.174Z,22.00
2019-06-08T21:40:08.683Z,22.00
2019-06-08T21:42:37.384Z,21.90
2019-06-08T21:45:09.685Z,21.90
2019-06-08T21:47:38.539Z,21.90
2019-06-08T21:50:08.305Z,21.90
2019-06-08T21:52:37.049Z,21.80
2019-06-08T21:55:07.350Z,21.70
2019-06-08T21:57:37.137Z,21.60
2019-06-08T22:00:22.909Z,21.60
2019-06-08T22:02:38.291Z,21.50
2019-06-08T22:05:08.247Z,21.30
2019-06-08T22:07:37.735Z,21.30
2019-06-08T22:10:07.524Z,21.20
2019-06-08T22:12:39.963Z,21.20
2019-06-08T22:15:07.984Z,21.20
2019-06-08T22:17:38.307Z,21.20
2019-06-08T22:20:09.261Z,21.10
2019-06-08T22:22:38.012Z,21.10
2019-06-08T22:25:08.283Z,21.10
2019-06-08T22:27:38.127Z,21.00
2019-06-08T22:30:13.460Z,21.00
2019-06-08T22:32:38.605Z,20.90
2019-06-08T22:35:08.170Z,20.90
2019-06-08T22:37:38.060Z,20.80
2019-06-08T22:40:08.402Z,20.70
2019-06-08T22:42:37.759Z,20.70
2019-06-08T22:45:08.369Z,20.70
2019-06-08T22:47:38.765Z,20.80
2019-06-08T22:50:08.215Z,20.80
2019-06-08T22:52:37.508Z,20.50
2019-06-08T22:55:10.598Z,20.50
2019-06-08T22:57:37.718Z,20.50
2019-06-08T23:00:14.263Z,20.60
2019-06-08T23:02:38.428Z,20.60
2019-06-08T23:05:08.944Z,20.50
2019-06-08T23:07:38.121Z,20.50
2019-06-08T23:10:10.868Z,20.60
2019-06-08T23:12:39.421Z,20.60
2019-06-08T23:15:08.490Z,20.60
2019-06-08T23:17:38.773Z,20.60
2019-06-08T23:20:08.722Z,20.70
2019-06-08T23:22:38.395Z,20.70
2019-06-08T23:25:09.469Z,20.70
2019-06-08T23:27:38.154Z,20.70
2019-06-08T23:30:10.121Z,20.70
2019-06-08T23:32:38.954Z,20.70
2019-06-08T23:35:09.545Z,20.70
2019-06-08T23:37:38.557Z,20.70
2019-06-08T23:40:08.006Z,20.70
2019-06-08T23:42:38.350Z,20.60
2019-06-08T23:45:10.567Z,20.50
2019-06-08T23:47:38.737Z,20.50
2019-06-08T23:50:10.938Z,20.60
2019-06-08T23:52:38.436Z,20.50
2019-06-08T23:55:11.389Z,20.40
2019-06-08T23:57:38.191Z,20.40
